Terminal Aerodrome Forecast
Issued by NWS

Home | Current Version | Previous Version | Graphics & Text | Print | Product List | Glossary Off
Versions: 1 2 3 4 5 6 7 8 9 10 11 12 13 14 15 16 17 18

000
FTUS43 KGRB 282300 RRA
TAFAUW
TAF
KAUW 282343Z 2900/2924 12005KT 6SM -SN BR SCT012 OVC050
      TEMPO 2900/2904 4SM -SNPL BR BKN012
     FM290400 13005KT 3SM BR BKN012 OVC090
      TEMPO 2904/2908 -FZDZ
     FM291600 17006KT 5SM HZ BKN015
     FM292000 21007KT P6SM SCT020=

USA.gov is the U.S. government's official web portal to all federal, state and local government web resources and services.